Beaverdale Heights, Iowa
Current Conditions -  °F | °C
As of 11:53 PM on Thursday 27 Nov 2014 (Local Time) from KBRL Reporting Station
Broken Clouds Broken Clouds  
Wind Chill:   Ceiling: 10000
Heat Index: 14°   Visibility: 10mi
Dew Point:   Wind: 7mph
Humidity: 74%   Direction: 100°E
Pressure: 30.37"   Gusts: NA
Location:  40.8198°N, 91.2162°W
Report Text: KBRL 280553Z AUTO 10006KT 10SM SCT050 BKN100 M10/M14 A3037 RMK AO2 SLP296 T11001139 11100 21156 410281156 58020 PWINO FZRANO $
Loading
Personal Weather Stations






























Interactive Weather Map New forecast layout! Learn more

10-Day Weather Forecast

Advertisements
Track Severe Weather on mobile